RRR4258 EGXE-LPLA
Flight info
| Callsign | RRR4258 |
|---|---|
| Flight time | N/A |
| Altitude | 37000 |
| Route | MAM/N0463F380 DCT BZN DCT VLN DCT LND DCT RATKA/M080F380 DCT TAMEL DCT H4615 DCT H4320 DCT ANAVA |
| Aircraft | A400/H-SDE3FGHIRWY/L4T |
Departure
| Time | N/A |
|---|---|
| Airport | RAF Leeming (EGXE) |
Arrival
| Time | 2026-04-20 20:24 |
|---|---|
| Airport | Lajes Airport (LPLA) |
| Time | Latitude | Longitude | Altitude | Speed | Heading |
|---|---|---|---|---|---|
| 2026-04-20 18:27 | 46.52968 | -14.94449 | 32893 ft | 368 kts | 227° |
| 2026-04-20 18:27 | 46.51396 | -14.97383 | 32902 ft | 368 kts | 227° |
| 2026-04-20 18:28 | 46.48233 | -15.03231 | 32901 ft | 368 kts | 226° |
| 2026-04-20 18:28 | 46.45208 | -15.08739 | 32895 ft | 367 kts | 226° |
| 2026-04-20 18:29 | 46.42014 | -15.14528 | 32897 ft | 366 kts | 226° |
| 2026-04-20 18:29 | 46.38845 | -15.20268 | 32893 ft | 366 kts | 226° |
| 2026-04-20 18:30 | 46.35665 | -15.26020 | 32893 ft | 365 kts | 226° |
| 2026-04-20 18:30 | 46.32505 | -15.31727 | 32892 ft | 364 kts | 226° |
| 2026-04-20 18:31 | 46.29335 | -15.37441 | 32892 ft | 363 kts | 225° |
| 2026-04-20 18:31 | 46.26169 | -15.43133 | 32893 ft | 363 kts | 225° |
| 2026-04-20 18:32 | 46.23021 | -15.48783 | 32890 ft | 362 kts | 225° |
| 2026-04-20 18:32 | 46.19854 | -15.54456 | 32889 ft | 362 kts | 225° |
| 2026-04-20 18:33 | 46.16709 | -15.60077 | 32889 ft | 362 kts | 225° |
| 2026-04-20 18:33 | 46.13545 | -15.65721 | 32889 ft | 361 kts | 225° |
| 2026-04-20 18:34 | 46.10380 | -15.71356 | 32890 ft | 361 kts | 225° |
| 2026-04-20 18:34 | 46.07215 | -15.76979 | 32894 ft | 361 kts | 224° |
| 2026-04-20 18:35 | 46.04053 | -15.82585 | 32894 ft | 360 kts | 224° |
| 2026-04-20 18:35 | 46.00906 | -15.88154 | 32903 ft | 360 kts | 224° |
| 2026-04-20 18:36 | 45.97747 | -15.93732 | 32903 ft | 359 kts | 224° |
| 2026-04-20 18:36 | 45.94608 | -15.99264 | 32898 ft | 358 kts | 224° |
| 2026-04-20 18:37 | 45.91457 | -16.04809 | 32899 ft | 358 kts | 224° |
| 2026-04-20 18:37 | 45.88302 | -16.10346 | 32902 ft | 357 kts | 223° |
| 2026-04-20 18:38 | 45.85151 | -16.15866 | 32904 ft | 357 kts | 223° |
| 2026-04-20 18:38 | 45.82022 | -16.21338 | 32905 ft | 356 kts | 223° |
| 2026-04-20 18:39 | 45.78871 | -16.26836 | 32904 ft | 356 kts | 223° |
| 2026-04-20 18:39 | 45.75718 | -16.32327 | 32909 ft | 356 kts | 223° |
| 2026-04-20 18:40 | 45.72582 | -16.37779 | 32903 ft | 356 kts | 223° |
| 2026-04-20 18:40 | 45.64518 | -16.49339 | 32971 ft | 355 kts | 221° |
| 2026-04-20 18:41 | 45.61673 | -16.55199 | 32909 ft | 363 kts | 228° |
| 2026-04-20 18:41 | 45.58855 | -16.61162 | 32910 ft | 360 kts | 225° |
| 2026-04-20 18:42 | 45.55814 | -16.66802 | 32912 ft | 357 kts | 223° |
| 2026-04-20 18:42 | 45.52669 | -16.72232 | 32914 ft | 356 kts | 221° |
| 2026-04-20 18:43 | 45.49475 | -16.77654 | 32916 ft | 356 kts | 221° |
| 2026-04-20 18:43 | 45.46285 | -16.83080 | 32914 ft | 356 kts | 221° |
| 2026-04-20 18:44 | 45.43115 | -16.88483 | 32914 ft | 357 kts | 221° |
| 2026-04-20 18:44 | 45.39946 | -16.93884 | 32921 ft | 357 kts | 221° |
| 2026-04-20 18:45 | 45.36754 | -16.99314 | 32922 ft | 357 kts | 221° |
| 2026-04-20 18:45 | 45.33556 | -17.04742 | 32924 ft | 357 kts | 221° |
| 2026-04-20 18:46 | 45.30373 | -17.10134 | 32928 ft | 357 kts | 221° |
| 2026-04-20 18:46 | 45.27172 | -17.15545 | 32932 ft | 357 kts | 221° |
| 2026-04-20 18:47 | 45.23988 | -17.20918 | 32928 ft | 357 kts | 220° |
| 2026-04-20 18:47 | 45.20769 | -17.26339 | 32929 ft | 357 kts | 220° |
| 2026-04-20 18:48 | 45.17584 | -17.31695 | 32927 ft | 357 kts | 220° |
| 2026-04-20 18:48 | 45.14377 | -17.37075 | 32929 ft | 358 kts | 220° |
| 2026-04-20 18:49 | 45.11157 | -17.42466 | 32929 ft | 358 kts | 220° |
| 2026-04-20 18:49 | 45.07929 | -17.47859 | 32930 ft | 359 kts | 220° |
| 2026-04-20 18:50 | 45.04689 | -17.53263 | 32930 ft | 360 kts | 220° |
| 2026-04-20 18:50 | 45.03068 | -17.55963 | 33180 ft | 360 kts | 220° |
| 2026-04-20 18:50 | 45.01468 | -17.58630 | 33705 ft | 355 kts | 220° |
| 2026-04-20 18:51 | 44.99878 | -17.61286 | 34190 ft | 351 kts | 220° |
| 2026-04-20 18:51 | 44.98300 | -17.63912 | 34500 ft | 351 kts | 220° |
| 2026-04-20 18:51 | 44.96699 | -17.66562 | 34710 ft | 355 kts | 220° |
| 2026-04-20 18:51 | 44.95111 | -17.69186 | 34888 ft | 355 kts | 221° |
| 2026-04-20 18:52 | 44.91874 | -17.74536 | 34927 ft | 359 kts | 221° |
| 2026-04-20 18:52 | 44.88615 | -17.79923 | 34928 ft | 360 kts | 221° |
| 2026-04-20 18:53 | 44.85370 | -17.85279 | 34933 ft | 361 kts | 221° |
| 2026-04-20 18:53 | 44.82090 | -17.90679 | 34930 ft | 362 kts | 221° |
| 2026-04-20 18:54 | 44.78825 | -17.96044 | 34929 ft | 363 kts | 221° |
| 2026-04-20 18:54 | 44.75523 | -18.01459 | 34926 ft | 364 kts | 221° |
| 2026-04-20 18:55 | 44.72238 | -18.06836 | 34926 ft | 364 kts | 221° |
| 2026-04-20 18:55 | 44.68926 | -18.12248 | 34922 ft | 364 kts | 221° |
| 2026-04-20 18:56 | 44.65613 | -18.17650 | 34930 ft | 365 kts | 222° |
| 2026-04-20 18:56 | 44.62291 | -18.23055 | 34930 ft | 365 kts | 222° |
| 2026-04-20 18:57 | 44.58982 | -18.28430 | 34921 ft | 365 kts | 222° |
| 2026-04-20 18:57 | 44.55662 | -18.33813 | 34922 ft | 366 kts | 222° |
| 2026-04-20 18:58 | 44.52312 | -18.39233 | 34929 ft | 366 kts | 222° |
| 2026-04-20 18:58 | 44.48992 | -18.44596 | 34931 ft | 366 kts | 222° |
| 2026-04-20 18:59 | 44.45654 | -18.49978 | 34929 ft | 365 kts | 222° |
| 2026-04-20 18:59 | 44.42314 | -18.55351 | 34933 ft | 365 kts | 222° |
| 2026-04-20 19:00 | 44.38988 | -18.60693 | 34932 ft | 365 kts | 221° |
| 2026-04-20 19:00 | 44.35646 | -18.66048 | 34931 ft | 365 kts | 221° |
| 2026-04-20 19:01 | 44.32305 | -18.71394 | 34933 ft | 365 kts | 221° |
| 2026-04-20 19:01 | 44.28974 | -18.76713 | 34934 ft | 364 kts | 221° |
| 2026-04-20 19:02 | 44.25631 | -18.82042 | 34935 ft | 364 kts | 221° |
| 2026-04-20 19:02 | 44.22308 | -18.87327 | 34930 ft | 364 kts | 221° |
| 2026-04-20 19:03 | 44.18961 | -18.92643 | 34933 ft | 364 kts | 221° |
| 2026-04-20 19:03 | 44.15614 | -18.97947 | 34934 ft | 363 kts | 221° |
| 2026-04-20 19:04 | 44.12294 | -19.03199 | 34934 ft | 363 kts | 221° |
| 2026-04-20 19:04 | 44.08957 | -19.08469 | 34933 ft | 362 kts | 221° |
| 2026-04-20 19:05 | 44.05621 | -19.13726 | 34938 ft | 362 kts | 221° |
| 2026-04-20 19:05 | 44.02281 | -19.18980 | 34938 ft | 361 kts | 221° |
| 2026-04-20 19:06 | 43.99514 | -19.23327 | 34939 ft | 361 kts | 221° |
| 2026-04-20 19:06 | 43.95647 | -19.29389 | 34935 ft | 360 kts | 222° |
| 2026-04-20 19:07 | 43.92877 | -19.33723 | 34940 ft | 360 kts | 222° |
| 2026-04-20 19:07 | 43.89547 | -19.38925 | 34943 ft | 360 kts | 222° |
| 2026-04-20 19:08 | 43.84543 | -19.46723 | 34936 ft | 360 kts | 222° |
| 2026-04-20 19:09 | 43.81230 | -19.51874 | 34943 ft | 359 kts | 222° |
| 2026-04-20 19:09 | 43.77895 | -19.57051 | 34943 ft | 360 kts | 222° |
| 2026-04-20 19:10 | 43.74567 | -19.62207 | 34941 ft | 360 kts | 222° |
| 2026-04-20 19:10 | 43.71215 | -19.67391 | 34946 ft | 360 kts | 222° |
| 2026-04-20 19:11 | 43.67871 | -19.72554 | 34946 ft | 361 kts | 222° |
| 2026-04-20 19:11 | 43.64530 | -19.77703 | 34945 ft | 361 kts | 222° |
| 2026-04-20 19:12 | 43.61163 | -19.82882 | 34944 ft | 362 kts | 222° |
| 2026-04-20 19:12 | 43.57792 | -19.88059 | 34947 ft | 362 kts | 223° |
| 2026-04-20 19:13 | 43.54438 | -19.93199 | 34949 ft | 363 kts | 223° |
| 2026-04-20 19:13 | 43.51044 | -19.98391 | 34954 ft | 364 kts | 223° |
| 2026-04-20 19:14 | 43.47731 | -20.03645 | 34952 ft | 366 kts | 225° |
| 2026-04-20 19:14 | 43.44463 | -20.09041 | 34947 ft | 367 kts | 225° |
| 2026-04-20 19:15 | 43.41199 | -20.14447 | 34947 ft | 367 kts | 225° |
| 2026-04-20 19:15 | 43.37912 | -20.19856 | 34956 ft | 368 kts | 225° |
| 2026-04-20 19:16 | 43.34637 | -20.25217 | 34955 ft | 369 kts | 225° |
| 2026-04-20 19:16 | 43.31332 | -20.30614 | 34950 ft | 369 kts | 225° |
| 2026-04-20 19:17 | 43.28029 | -20.35998 | 34961 ft | 370 kts | 225° |
| 2026-04-20 19:17 | 43.24697 | -20.41421 | 34957 ft | 371 kts | 226° |
| 2026-04-20 19:18 | 43.21363 | -20.46835 | 34952 ft | 371 kts | 226° |
| 2026-04-20 19:18 | 43.18036 | -20.52230 | 34958 ft | 372 kts | 226° |
| 2026-04-20 19:19 | 43.14683 | -20.57656 | 34951 ft | 373 kts | 226° |
| 2026-04-20 19:19 | 43.11327 | -20.63078 | 34963 ft | 373 kts | 226° |
| 2026-04-20 19:20 | 43.07983 | -20.68469 | 34962 ft | 374 kts | 226° |
| 2026-04-20 19:20 | 43.04615 | -20.73890 | 34959 ft | 374 kts | 226° |
| 2026-04-20 19:21 | 43.01244 | -20.79305 | 34963 ft | 375 kts | 226° |
| 2026-04-20 19:21 | 42.97847 | -20.84751 | 34958 ft | 376 kts | 226° |
| 2026-04-20 19:22 | 42.94463 | -20.90167 | 34957 ft | 377 kts | 226° |
| 2026-04-20 19:22 | 42.91050 | -20.95620 | 34960 ft | 378 kts | 227° |
| 2026-04-20 19:23 | 42.87621 | -21.01087 | 34962 ft | 379 kts | 227° |
| 2026-04-20 19:23 | 42.84190 | -21.06548 | 34963 ft | 380 kts | 227° |
| 2026-04-20 19:24 | 42.80767 | -21.11985 | 34968 ft | 380 kts | 227° |
| 2026-04-20 19:24 | 42.77311 | -21.17464 | 34964 ft | 381 kts | 227° |
| 2026-04-20 19:25 | 42.73846 | -21.22948 | 34966 ft | 382 kts | 227° |
| 2026-04-20 19:25 | 42.70392 | -21.28405 | 34966 ft | 383 kts | 227° |
| 2026-04-20 19:26 | 42.66905 | -21.33903 | 34966 ft | 383 kts | 227° |
| 2026-04-20 19:26 | 42.63411 | -21.39401 | 34970 ft | 384 kts | 228° |
| 2026-04-20 19:27 | 42.59909 | -21.44902 | 34971 ft | 385 kts | 228° |
| 2026-04-20 19:27 | 42.56426 | -21.50363 | 34970 ft | 386 kts | 228° |
| 2026-04-20 19:28 | 42.52897 | -21.55886 | 34971 ft | 386 kts | 228° |
| 2026-04-20 19:28 | 42.49366 | -21.61400 | 34970 ft | 387 kts | 228° |
| 2026-04-20 19:29 | 42.45850 | -21.66883 | 34973 ft | 388 kts | 228° |
| 2026-04-20 19:29 | 42.42313 | -21.72386 | 34972 ft | 388 kts | 228° |
| 2026-04-20 19:30 | 42.38761 | -21.77903 | 34975 ft | 389 kts | 229° |
| 2026-04-20 19:30 | 42.35197 | -21.83430 | 34977 ft | 390 kts | 229° |
| 2026-04-20 19:31 | 42.31619 | -21.88966 | 34978 ft | 390 kts | 229° |
| 2026-04-20 19:31 | 42.28057 | -21.94466 | 34975 ft | 391 kts | 229° |
| 2026-04-20 19:32 | 42.24475 | -21.99989 | 34980 ft | 392 kts | 229° |
| 2026-04-20 19:32 | 42.20874 | -22.05529 | 34980 ft | 392 kts | 229° |
| 2026-04-20 19:33 | 42.17258 | -22.11083 | 34979 ft | 393 kts | 229° |
| 2026-04-20 19:33 | 42.13665 | -22.16591 | 34981 ft | 393 kts | 230° |
| 2026-04-20 19:34 | 42.10054 | -22.22128 | 34979 ft | 389 kts | 229° |
| 2026-04-20 19:34 | 42.06452 | -22.27646 | 34984 ft | 394 kts | 230° |
| 2026-04-20 19:35 | 42.02800 | -22.33191 | 34981 ft | 395 kts | 230° |
| 2026-04-20 19:35 | 41.99178 | -22.38693 | 34988 ft | 395 kts | 230° |
| 2026-04-20 19:36 | 41.95521 | -22.44246 | 34984 ft | 396 kts | 230° |
| 2026-04-20 19:36 | 41.91877 | -22.49773 | 34982 ft | 396 kts | 230° |
| 2026-04-20 19:37 | 41.88204 | -22.55329 | 34988 ft | 397 kts | 230° |
| 2026-04-20 19:37 | 41.84526 | -22.60883 | 34984 ft | 397 kts | 230° |
| 2026-04-20 19:38 | 41.80867 | -22.66399 | 34986 ft | 398 kts | 231° |
| 2026-04-20 19:38 | 41.77179 | -22.71948 | 34989 ft | 398 kts | 231° |
| 2026-04-20 19:39 | 41.73497 | -22.77477 | 34989 ft | 399 kts | 231° |
| 2026-04-20 19:39 | 41.69788 | -22.83036 | 34991 ft | 400 kts | 231° |
| 2026-04-20 19:40 | 41.66072 | -22.88596 | 34993 ft | 401 kts | 231° |
| 2026-04-20 19:40 | 41.62371 | -22.94122 | 34997 ft | 401 kts | 231° |
| 2026-04-20 19:41 | 41.58636 | -22.99688 | 34991 ft | 401 kts | 232° |
| 2026-04-20 19:41 | 41.54925 | -23.05210 | 34989 ft | 402 kts | 232° |
| 2026-04-20 19:42 | 41.51178 | -23.10773 | 35002 ft | 402 kts | 232° |
| 2026-04-20 19:42 | 41.47432 | -23.16326 | 34988 ft | 402 kts | 232° |
| 2026-04-20 19:43 | 41.43674 | -23.21885 | 34987 ft | 403 kts | 232° |
| 2026-04-20 19:43 | 41.39937 | -23.27403 | 34996 ft | 403 kts | 233° |
| 2026-04-20 19:44 | 41.36178 | -23.32943 | 35001 ft | 403 kts | 233° |
| 2026-04-20 19:44 | 41.32401 | -23.38499 | 34998 ft | 403 kts | 233° |
| 2026-04-20 19:45 | 41.28654 | -23.44001 | 34998 ft | 403 kts | 233° |
| 2026-04-20 19:45 | 41.24881 | -23.49531 | 34998 ft | 404 kts | 233° |
| 2026-04-20 19:46 | 41.21105 | -23.55056 | 35003 ft | 404 kts | 233° |
| 2026-04-20 19:46 | 41.17323 | -23.60579 | 35001 ft | 404 kts | 234° |
| 2026-04-20 19:47 | 41.13546 | -23.66084 | 35003 ft | 404 kts | 234° |
| 2026-04-20 19:47 | 41.09751 | -23.71606 | 35005 ft | 404 kts | 234° |
| 2026-04-20 19:48 | 41.05980 | -23.77081 | 35003 ft | 404 kts | 234° |
| 2026-04-20 19:48 | 41.02176 | -23.82595 | 35008 ft | 405 kts | 234° |
| 2026-04-20 19:49 | 40.98366 | -23.88107 | 35005 ft | 405 kts | 234° |
| 2026-04-20 19:49 | 40.94575 | -23.93582 | 35006 ft | 405 kts | 234° |
| 2026-04-20 19:50 | 40.90756 | -23.99088 | 35006 ft | 406 kts | 235° |
| 2026-04-20 19:50 | 40.86955 | -24.04557 | 35008 ft | 406 kts | 235° |
| 2026-04-20 19:51 | 40.83131 | -24.10049 | 35014 ft | 406 kts | 235° |
| 2026-04-20 19:51 | 40.79301 | -24.15539 | 35013 ft | 406 kts | 235° |
| 2026-04-20 19:52 | 40.75493 | -24.20988 | 35008 ft | 406 kts | 236° |
| 2026-04-20 19:52 | 40.71661 | -24.26462 | 35018 ft | 406 kts | 236° |
| 2026-04-20 19:53 | 40.67843 | -24.31906 | 35019 ft | 406 kts | 236° |
| 2026-04-20 19:53 | 40.64007 | -24.37365 | 35017 ft | 406 kts | 236° |
| 2026-04-20 19:54 | 40.60161 | -24.42829 | 35018 ft | 406 kts | 236° |
| 2026-04-20 19:54 | 40.56334 | -24.48255 | 35029 ft | 406 kts | 237° |
| 2026-04-20 19:55 | 40.52484 | -24.53705 | 35017 ft | 406 kts | 237° |
| 2026-04-20 19:55 | 40.48634 | -24.59145 | 35021 ft | 406 kts | 237° |
| 2026-04-20 19:56 | 40.45438 | -24.63653 | 35024 ft | 406 kts | 237° |
| 2026-04-20 19:56 | 40.40954 | -24.69967 | 35019 ft | 406 kts | 237° |
| 2026-04-20 19:57 | 40.37090 | -24.75396 | 35020 ft | 406 kts | 238° |
| 2026-04-20 19:57 | 40.33241 | -24.80796 | 35026 ft | 406 kts | 238° |
| 2026-04-20 19:58 | 40.30026 | -24.85298 | 35027 ft | 406 kts | 238° |
| 2026-04-20 19:58 | 40.26156 | -24.90710 | 35024 ft | 408 kts | 238° |
| 2026-04-20 19:59 | 40.22264 | -24.96149 | 35022 ft | 410 kts | 238° |
| 2026-04-20 19:59 | 40.18351 | -25.01597 | 35032 ft | 410 kts | 239° |
| 2026-04-20 20:00 | 40.14428 | -25.07049 | 35030 ft | 410 kts | 239° |
| 2026-04-20 20:00 | 40.10534 | -25.12453 | 35028 ft | 411 kts | 239° |
| 2026-04-20 20:01 | 40.06611 | -25.17889 | 35030 ft | 411 kts | 239° |
| 2026-04-20 20:01 | 40.02682 | -25.23323 | 35032 ft | 411 kts | 239° |
| 2026-04-20 20:02 | 39.98757 | -25.28742 | 35039 ft | 411 kts | 239° |
| 2026-04-20 20:02 | 39.94852 | -25.34124 | 35036 ft | 411 kts | 240° |
| 2026-04-20 20:03 | 39.90914 | -25.39542 | 35039 ft | 410 kts | 240° |
| 2026-04-20 20:03 | 39.87182 | -25.45037 | 35044 ft | 405 kts | 243° |
| 2026-04-20 20:04 | 39.83509 | -25.50622 | 35042 ft | 406 kts | 243° |
| 2026-04-20 20:04 | 39.81444 | -25.53232 | 35046 ft | 423 kts | 233° |
| 2026-04-20 20:04 | 39.79269 | -25.55756 | 35043 ft | 415 kts | 237° |
| 2026-04-20 20:05 | 39.75064 | -25.60945 | 35042 ft | 417 kts | 237° |
| 2026-04-20 20:05 | 39.70811 | -25.66053 | 35043 ft | 418 kts | 236° |
| 2026-04-20 20:06 | 39.66501 | -25.71152 | 35046 ft | 419 kts | 236° |
| 2026-04-20 20:06 | 39.62194 | -25.76215 | 35050 ft | 419 kts | 236° |
| 2026-04-20 20:07 | 39.57879 | -25.81273 | 35050 ft | 419 kts | 236° |
| 2026-04-20 20:07 | 39.53541 | -25.86347 | 35016 ft | 418 kts | 236° |
| 2026-04-20 20:07 | 39.51373 | -25.88879 | 34659 ft | 418 kts | 237° |
| 2026-04-20 20:08 | 39.49236 | -25.91374 | 34015 ft | 419 kts | 237° |
| 2026-04-20 20:08 | 39.47062 | -25.93911 | 33202 ft | 419 kts | 237° |
| 2026-04-20 20:08 | 39.44883 | -25.96453 | 32405 ft | 421 kts | 237° |
| 2026-04-20 20:08 | 39.42702 | -25.98994 | 31627 ft | 423 kts | 237° |
| 2026-04-20 20:09 | 39.40533 | -26.01519 | 30895 ft | 425 kts | 236° |
| 2026-04-20 20:09 | 39.38326 | -26.04085 | 30162 ft | 427 kts | 236° |
| 2026-04-20 20:09 | 39.36115 | -26.06649 | 29322 ft | 425 kts | 236° |
| 2026-04-20 20:09 | 39.33911 | -26.09198 | 28485 ft | 422 kts | 235° |
| 2026-04-20 20:10 | 39.31733 | -26.11716 | 27684 ft | 417 kts | 235° |
| 2026-04-20 20:10 | 39.29600 | -26.14180 | 26910 ft | 413 kts | 235° |
| 2026-04-20 20:10 | 39.27464 | -26.16650 | 26149 ft | 408 kts | 234° |
| 2026-04-20 20:10 | 39.25371 | -26.19068 | 25417 ft | 404 kts | 234° |
| 2026-04-20 20:11 | 39.23283 | -26.21480 | 24696 ft | 402 kts | 234° |
| 2026-04-20 20:11 | 39.21177 | -26.23924 | 23997 ft | 410 kts | 233° |
| 2026-04-20 20:11 | 39.19042 | -26.26395 | 23224 ft | 412 kts | 233° |
| 2026-04-20 20:11 | 39.16938 | -26.28817 | 22417 ft | 409 kts | 232° |
| 2026-04-20 20:12 | 39.14826 | -26.31239 | 21629 ft | 402 kts | 232° |
| 2026-04-20 20:12 | 39.12754 | -26.33614 | 20855 ft | 394 kts | 231° |
| 2026-04-20 20:12 | 39.10720 | -26.35946 | 20109 ft | 387 kts | 231° |
| 2026-04-20 20:13 | 39.06779 | -26.40467 | 18670 ft | 372 kts | 230° |
| 2026-04-20 20:13 | 39.04862 | -26.42668 | 17910 ft | 367 kts | 230° |
| 2026-04-20 20:13 | 39.02992 | -26.44812 | 17118 ft | 361 kts | 230° |
| 2026-04-20 20:13 | 39.01130 | -26.46945 | 16344 ft | 356 kts | 230° |
| 2026-04-20 20:14 | 38.99292 | -26.49049 | 15593 ft | 351 kts | 230° |
| 2026-04-20 20:14 | 38.97476 | -26.51126 | 14856 ft | 347 kts | 229° |
| 2026-04-20 20:14 | 38.95683 | -26.53175 | 14134 ft | 342 kts | 229° |
| 2026-04-20 20:14 | 38.93911 | -26.55199 | 13365 ft | 338 kts | 229° |
| 2026-04-20 20:15 | 38.92164 | -26.57193 | 12642 ft | 333 kts | 229° |
| 2026-04-20 20:15 | 38.90436 | -26.59164 | 12136 ft | 330 kts | 229° |
| 2026-04-20 20:15 | 38.88726 | -26.61115 | 11645 ft | 328 kts | 229° |
| 2026-04-20 20:15 | 38.87023 | -26.63054 | 11178 ft | 326 kts | 228° |
| 2026-04-20 20:16 | 38.85351 | -26.64958 | 10706 ft | 324 kts | 228° |
| 2026-04-20 20:16 | 38.83668 | -26.66873 | 10241 ft | 322 kts | 228° |
| 2026-04-20 20:16 | 38.81995 | -26.68774 | 9765 ft | 317 kts | 228° |
| 2026-04-20 20:16 | 38.80387 | -26.70591 | 9415 ft | 299 kts | 228° |
| 2026-04-20 20:17 | 38.78860 | -26.72318 | 9089 ft | 289 kts | 228° |
| 2026-04-20 20:17 | 38.77364 | -26.74017 | 8779 ft | 285 kts | 228° |
| 2026-04-20 20:17 | 38.75886 | -26.75697 | 8464 ft | 283 kts | 228° |
| 2026-04-20 20:17 | 38.74433 | -26.77348 | 8155 ft | 281 kts | 228° |
| 2026-04-20 20:18 | 38.72972 | -26.79005 | 7845 ft | 280 kts | 228° |
| 2026-04-20 20:18 | 38.71514 | -26.80657 | 7536 ft | 278 kts | 227° |
| 2026-04-20 20:18 | 38.70067 | -26.82295 | 7229 ft | 277 kts | 227° |
| 2026-04-20 20:18 | 38.68621 | -26.83930 | 6816 ft | 276 kts | 227° |
| 2026-04-20 20:19 | 38.67185 | -26.85553 | 6330 ft | 273 kts | 227° |
| 2026-04-20 20:19 | 38.65780 | -26.87137 | 6106 ft | 269 kts | 227° |
| 2026-04-20 20:19 | 38.64380 | -26.88723 | 6079 ft | 269 kts | 228° |
| 2026-04-20 20:19 | 38.63216 | -26.90539 | 6080 ft | 259 kts | 249° |
| 2026-04-20 20:20 | 38.62816 | -26.92619 | 6083 ft | 228 kts | 272° |
| 2026-04-20 20:20 | 38.63032 | -26.94513 | 6084 ft | 206 kts | 295° |
| 2026-04-20 20:20 | 38.63800 | -26.95964 | 6012 ft | 192 kts | 313° |
| 2026-04-20 20:20 | 38.64741 | -26.97077 | 5624 ft | 177 kts | 319° |
| 2026-04-20 20:21 | 38.65667 | -26.98059 | 5107 ft | 170 kts | 320° |
| 2026-04-20 20:21 | 38.66565 | -26.98985 | 4523 ft | 167 kts | 321° |
| 2026-04-20 20:21 | 38.67496 | -26.99906 | 3808 ft | 169 kts | 321° |
| 2026-04-20 20:21 | 38.68388 | -27.00866 | 3145 ft | 166 kts | 319° |
| 2026-04-20 20:22 | 38.69251 | -27.01852 | 2529 ft | 165 kts | 319° |
| 2026-04-20 20:22 | 38.70126 | -27.02788 | 2013 ft | 163 kts | 320° |
| 2026-04-20 20:22 | 38.71011 | -27.03677 | 1556 ft | 160 kts | 322° |
| 2026-04-20 20:22 | 38.71843 | -27.04551 | 1187 ft | 152 kts | 318° |
| 2026-04-20 20:23 | 38.72584 | -27.05331 | 1045 ft | 121 kts | 320° |
| 2026-04-20 20:23 | 38.73234 | -27.05999 | 852 ft | 120 kts | 319° |
| 2026-04-20 20:23 | 38.73893 | -27.06681 | 637 ft | 122 kts | 316° |
| 2026-04-20 20:23 | 38.74564 | -27.07379 | 446 ft | 124 kts | 311° |
| 2026-04-20 20:24 | 38.75222 | -27.08066 | 261 ft | 118 kts | 310° |
| 2026-04-20 20:24 | 38.75797 | -27.08655 | 207 ft | 87 kts | 304° |
| 2026-04-20 20:24 | 38.76114 | -27.09007 | 200 ft | 39 kts | 321° |
| 2026-04-20 20:24 | 38.76278 | -27.09060 | 190 ft | 20 kts | 3° |
| 2026-04-20 20:25 | 38.76371 | -27.09057 | 184 ft | 9 kts | 352° |
| 2026-04-20 20:25 | 38.76421 | -27.09085 | 192 ft | 6 kts | 327° |
| 2026-04-20 20:25 | 38.76453 | -27.09115 | 193 ft | 5 kts | 321° |
| 2026-04-20 20:25 | 38.76611 | -27.09277 | 187 ft | 35 kts | 321° |
| 2026-04-20 20:26 | 38.76746 | -27.09419 | 189 ft | 19 kts | 321° |
| 2026-04-20 20:26 | 38.76827 | -27.09486 | 190 ft | 6 kts | 8° |
| 2026-04-20 20:26 | 38.76844 | -27.09445 | 188 ft | 8 kts | 69° |
| 2026-04-20 20:26 | 38.76851 | -27.09397 | 187 ft | 0 kts | 82° |